sensor_id;sensor_type;location;lat;lon;timestamp;P1;durP1;ratioP1;P2;durP2;ratioP2
24743;SDS011;12844;52.110;5.548;2023-08-06T00:00:53;2.05;;;1.90;;
24743;SDS011;12844;52.110;5.548;2023-08-06T00:03:18;1.90;;;1.80;;
24743;SDS011;12844;52.110;5.548;2023-08-06T00:05:44;2.00;;;1.83;;
24743;SDS011;12844;52.110;5.548;2023-08-06T00:08:09;2.22;;;1.90;;
24743;SDS011;12844;52.110;5.548;2023-08-06T00:10:35;2.10;;;1.90;;
24743;SDS011;12844;52.110;5.548;2023-08-06T00:13:00;2.15;;;1.95;;
24743;SDS011;12844;52.110;5.548;2023-08-06T00:15:26;2.08;;;1.88;;
24743;SDS011;12844;52.110;5.548;2023-08-06T00:17:51;1.73;;;1.63;;
24743;SDS011;12844;52.110;5.548;2023-08-06T00:20:17;1.88;;;1.77;;
24743;SDS011;12844;52.110;5.548;2023-08-06T00:22:42;2.00;;;1.90;;
24743;SDS011;12844;52.110;5.548;2023-08-06T00:25:08;2.10;;;1.90;;
24743;SDS011;12844;52.110;5.548;2023-08-06T00:27:34;2.05;;;1.85;;
24743;SDS011;12844;52.110;5.548;2023-08-06T00:29:59;1.98;;;1.85;;
24743;SDS011;12844;52.110;5.548;2023-08-06T00:32:25;2.05;;;1.88;;
24743;SDS011;12844;52.110;5.548;2023-08-06T00:34:50;1.90;;;1.80;;
24743;SDS011;12844;52.110;5.548;2023-08-06T00:37:16;2.08;;;1.85;;
24743;SDS011;12844;52.110;5.548;2023-08-06T00:39:42;1.80;;;1.70;;
24743;SDS011;12844;52.110;5.548;2023-08-06T00:42:08;2.10;;;1.90;;
24743;SDS011;12844;52.110;5.548;2023-08-06T00:44:34;1.95;;;1.80;;
24743;SDS011;12844;52.110;5.548;2023-08-06T00:46:59;2.00;;;1.80;;
24743;SDS011;12844;52.110;5.548;2023-08-06T00:49:25;2.33;;;2.10;;
24743;SDS011;12844;52.110;5.548;2023-08-06T00:51:51;2.00;;;1.80;;
24743;SDS011;12844;52.110;5.548;2023-08-06T00:54:17;1.83;;;1.70;;
24743;SDS011;12844;52.110;5.548;2023-08-06T00:56:42;1.90;;;1.80;;
24743;SDS011;12844;52.110;5.548;2023-08-06T00:59:08;2.25;;;2.05;;
24743;SDS011;12844;52.110;5.548;2023-08-06T01:01:35;1.73;;;1.63;;
24743;SDS011;12844;52.110;5.548;2023-08-06T01:04:01;2.03;;;1.85;;
24743;SDS011;12844;52.110;5.548;2023-08-06T01:09:50;2.10;;;1.83;;
24743;SDS011;12844;52.110;5.548;2023-08-06T01:12:19;2.22;;;2.03;;
24743;SDS011;12844;52.110;5.548;2023-08-06T01:15:11;1.75;;;1.65;;
24743;SDS011;12844;52.110;5.548;2023-08-06T01:17:43;1.98;;;1.75;;
24743;SDS011;12844;52.110;5.548;2023-08-06T01:20:10;2.00;;;1.77;;
24743;SDS011;12844;52.110;5.548;2023-08-06T01:22:36;2.00;;;1.80;;
24743;SDS011;12844;52.110;5.548;2023-08-06T01:25:01;2.13;;;1.70;;
24743;SDS011;12844;52.110;5.548;2023-08-06T01:27:33;1.77;;;1.67;;
24743;SDS011;12844;52.110;5.548;2023-08-06T01:30:11;2.10;;;1.90;;
24743;SDS011;12844;52.110;5.548;2023-08-06T01:32:42;1.80;;;1.70;;
24743;SDS011;12844;52.110;5.548;2023-08-06T01:35:10;1.95;;;1.83;;
24743;SDS011;12844;52.110;5.548;2023-08-06T01:37:38;2.10;;;1.90;;
24743;SDS011;12844;52.110;5.548;2023-08-06T01:40:06;1.90;;;1.70;;
24743;SDS011;12844;52.110;5.548;2023-08-06T01:42:36;2.25;;;2.05;;
24743;SDS011;12844;52.110;5.548;2023-08-06T01:45:02;1.95;;;1.75;;
24743;SDS011;12844;52.110;5.548;2023-08-06T01:47:28;1.92;;;1.75;;
24743;SDS011;12844;52.110;5.548;2023-08-06T01:49:54;1.80;;;1.70;;
24743;SDS011;12844;52.110;5.548;2023-08-06T01:52:19;2.28;;;1.83;;
24743;SDS011;12844;52.110;5.548;2023-08-06T01:54:45;2.10;;;1.90;;
24743;SDS011;12844;52.110;5.548;2023-08-06T01:57:10;1.75;;;1.65;;
24743;SDS011;12844;52.110;5.548;2023-08-06T01:59:36;2.10;;;1.90;;
24743;SDS011;12844;52.110;5.548;2023-08-06T02:02:01;2.00;;;1.75;;
24743;SDS011;12844;52.110;5.548;2023-08-06T02:04:27;2.53;;;1.90;;
24743;SDS011;12844;52.110;5.548;2023-08-06T02:06:53;1.70;;;1.60;;
24743;SDS011;12844;52.110;5.548;2023-08-06T02:09:18;2.03;;;1.90;;
24743;SDS011;12844;52.110;5.548;2023-08-06T02:11:44;2.30;;;2.00;;
24743;SDS011;12844;52.110;5.548;2023-08-06T02:14:10;2.17;;;1.98;;
24743;SDS011;12844;52.110;5.548;2023-08-06T02:16:35;2.08;;;1.88;;
24743;SDS011;12844;52.110;5.548;2023-08-06T02:19:01;1.70;;;1.60;;
24743;SDS011;12844;52.110;5.548;2023-08-06T02:21:26;2.10;;;1.90;;
24743;SDS011;12844;52.110;5.548;2023-08-06T02:23:52;2.50;;;1.80;;
24743;SDS011;12844;52.110;5.548;2023-08-06T02:26:17;2.10;;;1.90;;
24743;SDS011;12844;52.110;5.548;2023-08-06T02:28:43;2.00;;;1.80;;
24743;SDS011;12844;52.110;5.548;2023-08-06T02:31:08;2.28;;;2.08;;
24743;SDS011;12844;52.110;5.548;2023-08-06T02:33:34;2.10;;;1.90;;
24743;SDS011;12844;52.110;5.548;2023-08-06T02:36:00;2.00;;;1.80;;
24743;SDS011;12844;52.110;5.548;2023-08-06T02:38:26;2.30;;;2.10;;
24743;SDS011;12844;52.110;5.548;2023-08-06T02:40:52;2.58;;;2.15;;
24743;SDS011;12844;52.110;5.548;2023-08-06T02:43:17;2.00;;;1.80;;
24743;SDS011;12844;52.110;5.548;2023-08-06T02:45:43;2.13;;;1.92;;
24743;SDS011;12844;52.110;5.548;2023-08-06T02:48:08;2.28;;;2.08;;
24743;SDS011;12844;52.110;5.548;2023-08-06T02:50:38;2.35;;;2.15;;
24743;SDS011;12844;52.110;5.548;2023-08-06T02:53:04;2.08;;;1.88;;
24743;SDS011;12844;52.110;5.548;2023-08-06T02:55:31;2.17;;;1.98;;
24743;SDS011;12844;52.110;5.548;2023-08-06T02:57:56;2.80;;;2.15;;
24743;SDS011;12844;52.110;5.548;2023-08-06T03:00:22;2.03;;;1.90;;
24743;SDS011;12844;52.110;5.548;2023-08-06T03:02:47;2.05;;;1.85;;
24743;SDS011;12844;52.110;5.548;2023-08-06T03:05:13;1.83;;;1.73;;
24743;SDS011;12844;52.110;5.548;2023-08-06T03:07:38;1.90;;;1.80;;
24743;SDS011;12844;52.110;5.548;2023-08-06T03:10:04;2.47;;;1.90;;
24743;SDS011;12844;52.110;5.548;2023-08-06T03:12:30;2.33;;;2.10;;
24743;SDS011;12844;52.110;5.548;2023-08-06T03:14:55;1.85;;;1.63;;
24743;SDS011;12844;52.110;5.548;2023-08-06T03:17:21;2.30;;;1.98;;
24743;SDS011;12844;52.110;5.548;2023-08-06T03:19:46;2.30;;;2.10;;
24743;SDS011;12844;52.110;5.548;2023-08-06T03:22:12;1.90;;;1.80;;
24743;SDS011;12844;52.110;5.548;2023-08-06T03:24:37;2.40;;;2.03;;
24743;SDS011;12844;52.110;5.548;2023-08-06T03:27:03;1.85;;;1.75;;
24743;SDS011;12844;52.110;5.548;2023-08-06T03:29:29;1.80;;;1.70;;
24743;SDS011;12844;52.110;5.548;2023-08-06T03:31:54;2.70;;;2.28;;
24743;SDS011;12844;52.110;5.548;2023-08-06T03:34:20;2.30;;;1.92;;
24743;SDS011;12844;52.110;5.548;2023-08-06T03:36:45;2.17;;;1.98;;
24743;SDS011;12844;52.110;5.548;2023-08-06T03:39:11;2.47;;;2.28;;
24743;SDS011;12844;52.110;5.548;2023-08-06T03:41:36;2.20;;;2.00;;
24743;SDS011;12844;52.110;5.548;2023-08-06T03:44:02;2.10;;;1.90;;
24743;SDS011;12844;52.110;5.548;2023-08-06T03:46:29;2.22;;;2.03;;
24743;SDS011;12844;52.110;5.548;2023-08-06T03:48:54;2.13;;;1.73;;
24743;SDS011;12844;52.110;5.548;2023-08-06T03:51:21;1.98;;;1.67;;
24743;SDS011;12844;52.110;5.548;2023-08-06T03:53:47;2.17;;;1.92;;
24743;SDS011;12844;52.110;5.548;2023-08-06T03:56:12;1.98;;;1.77;;
24743;SDS011;12844;52.110;5.548;2023-08-06T03:58:38;2.30;;;2.10;;
24743;SDS011;12844;52.110;5.548;2023-08-06T04:01:03;2.10;;;1.90;;
24743;SDS011;12844;52.110;5.548;2023-08-06T04:03:29;2.22;;;2.00;;
24743;SDS011;12844;52.110;5.548;2023-08-06T04:05:55;2.05;;;1.85;;
24743;SDS011;12844;52.110;5.548;2023-08-06T04:08:20;2.45;;;2.10;;
24743;SDS011;12844;52.110;5.548;2023-08-06T04:10:49;2.25;;;2.05;;
24743;SDS011;12844;52.110;5.548;2023-08-06T04:13:16;2.38;;;2.17;;
24743;SDS011;12844;52.110;5.548;2023-08-06T04:15:41;2.22;;;2.03;;
24743;SDS011;12844;52.110;5.548;2023-08-06T04:18:07;1.92;;;1.77;;
24743;SDS011;12844;52.110;5.548;2023-08-06T04:20:32;1.90;;;1.80;;
24743;SDS011;12844;52.110;5.548;2023-08-06T04:22:58;2.10;;;1.90;;
24743;SDS011;12844;52.110;5.548;2023-08-06T04:25:23;2.22;;;2.03;;
24743;SDS011;12844;52.110;5.548;2023-08-06T04:27:49;2.25;;;2.05;;
24743;SDS011;12844;52.110;5.548;2023-08-06T04:30:15;2.30;;;2.10;;
24743;SDS011;12844;52.110;5.548;2023-08-06T04:32:41;2.40;;;2.20;;
24743;SDS011;12844;52.110;5.548;2023-08-06T04:35:06;2.10;;;1.90;;
24743;SDS011;12844;52.110;5.548;2023-08-06T04:37:32;2.17;;;1.98;;
24743;SDS011;12844;52.110;5.548;2023-08-06T04:39:58;2.20;;;2.00;;
24743;SDS011;12844;52.110;5.548;2023-08-06T04:42:23;2.13;;;1.92;;
24743;SDS011;12844;52.110;5.548;2023-08-06T04:44:49;2.45;;;2.25;;
24743;SDS011;12844;52.110;5.548;2023-08-06T04:47:15;2.35;;;2.15;;
24743;SDS011;12844;52.110;5.548;2023-08-06T04:49:41;2.20;;;2.00;;
24743;SDS011;12844;52.110;5.548;2023-08-06T04:52:06;2.65;;;2.45;;
24743;SDS011;12844;52.110;5.548;2023-08-06T04:54:32;2.20;;;2.00;;
24743;SDS011;12844;52.110;5.548;2023-08-06T04:56:57;2.53;;;2.15;;
24743;SDS011;12844;52.110;5.548;2023-08-06T04:59:23;2.58;;;2.28;;
24743;SDS011;12844;52.110;5.548;2023-08-06T05:01:48;2.17;;;1.98;;
24743;SDS011;12844;52.110;5.548;2023-08-06T05:04:14;2.40;;;2.20;;
24743;SDS011;12844;52.110;5.548;2023-08-06T05:06:39;2.47;;;2.25;;
24743;SDS011;12844;52.110;5.548;2023-08-06T05:09:06;2.67;;;2.00;;
24743;SDS011;12844;52.110;5.548;2023-08-06T05:11:31;2.25;;;1.98;;
24743;SDS011;12844;52.110;5.548;2023-08-06T05:13:57;2.58;;;2.38;;
24743;SDS011;12844;52.110;5.548;2023-08-06T05:16:23;2.10;;;1.90;;
24743;SDS011;12844;52.110;5.548;2023-08-06T05:18:48;2.05;;;1.85;;
24743;SDS011;12844;52.110;5.548;2023-08-06T05:21:14;2.13;;;1.92;;
24743;SDS011;12844;52.110;5.548;2023-08-06T05:23:41;2.15;;;1.95;;
24743;SDS011;12844;52.110;5.548;2023-08-06T05:26:07;2.45;;;1.90;;
24743;SDS011;12844;52.110;5.548;2023-08-06T05:28:32;2.15;;;1.95;;
24743;SDS011;12844;52.110;5.548;2023-08-06T05:31:02;2.45;;;2.25;;
24743;SDS011;12844;52.110;5.548;2023-08-06T05:33:28;2.35;;;2.15;;
24743;SDS011;12844;52.110;5.548;2023-08-06T05:35:54;2.10;;;1.90;;
24743;SDS011;12844;52.110;5.548;2023-08-06T05:38:19;2.30;;;1.83;;
24743;SDS011;12844;52.110;5.548;2023-08-06T05:40:45;2.70;;;2.15;;
24743;SDS011;12844;52.110;5.548;2023-08-06T05:43:11;2.05;;;1.85;;
24743;SDS011;12844;52.110;5.548;2023-08-06T05:45:36;2.40;;;2.17;;
24743;SDS011;12844;52.110;5.548;2023-08-06T05:48:02;2.30;;;2.10;;
24743;SDS011;12844;52.110;5.548;2023-08-06T05:50:27;2.60;;;2.15;;
24743;SDS011;12844;52.110;5.548;2023-08-06T05:52:53;2.10;;;1.90;;
24743;SDS011;12844;52.110;5.548;2023-08-06T05:55:19;2.20;;;2.00;;
24743;SDS011;12844;52.110;5.548;2023-08-06T05:57:45;2.30;;;2.10;;
24743;SDS011;12844;52.110;5.548;2023-08-06T06:00:11;2.10;;;1.90;;
24743;SDS011;12844;52.110;5.548;2023-08-06T06:02:37;2.13;;;2.00;;
24743;SDS011;12844;52.110;5.548;2023-08-06T06:05:02;2.28;;;2.08;;
24743;SDS011;12844;52.110;5.548;2023-08-06T06:07:28;2.28;;;2.08;;
24743;SDS011;12844;52.110;5.548;2023-08-06T06:09:53;2.10;;;1.90;;
24743;SDS011;12844;52.110;5.548;2023-08-06T06:12:19;2.20;;;2.00;;
24743;SDS011;12844;52.110;5.548;2023-08-06T06:14:44;2.38;;;2.17;;
24743;SDS011;12844;52.110;5.548;2023-08-06T06:17:10;2.42;;;2.22;;
24743;SDS011;12844;52.110;5.548;2023-08-06T06:19:35;2.13;;;1.92;;
24743;SDS011;12844;52.110;5.548;2023-08-06T06:22:01;2.53;;;2.33;;
24743;SDS011;12844;52.110;5.548;2023-08-06T06:24:27;2.10;;;1.85;;
24743;SDS011;12844;52.110;5.548;2023-08-06T06:26:52;2.47;;;2.28;;
24743;SDS011;12844;52.110;5.548;2023-08-06T06:29:18;2.67;;;2.25;;
24743;SDS011;12844;52.110;5.548;2023-08-06T06:31:43;2.58;;;2.33;;
24743;SDS011;12844;52.110;5.548;2023-08-06T06:34:09;2.63;;;2.42;;
24743;SDS011;12844;52.110;5.548;2023-08-06T06:36:34;2.47;;;2.28;;
24743;SDS011;12844;52.110;5.548;2023-08-06T06:39:00;2.60;;;2.40;;
24743;SDS011;12844;52.110;5.548;2023-08-06T06:41:25;2.67;;;2.47;;
24743;SDS011;12844;52.110;5.548;2023-08-06T06:43:51;2.40;;;2.20;;
24743;SDS011;12844;52.110;5.548;2023-08-06T06:46:17;2.42;;;2.22;;
24743;SDS011;12844;52.110;5.548;2023-08-06T06:48:42;2.40;;;2.20;;
24743;SDS011;12844;52.110;5.548;2023-08-06T06:51:08;2.40;;;2.20;;
24743;SDS011;12844;52.110;5.548;2023-08-06T06:53:33;2.70;;;2.40;;
24743;SDS011;12844;52.110;5.548;2023-08-06T06:56:03;2.40;;;2.20;;
24743;SDS011;12844;52.110;5.548;2023-08-06T06:58:30;2.45;;;2.25;;
24743;SDS011;12844;52.110;5.548;2023-08-06T07:00:56;2.70;;;2.50;;
24743;SDS011;12844;52.110;5.548;2023-08-06T07:03:21;2.85;;;2.30;;
24743;SDS011;12844;52.110;5.548;2023-08-06T07:05:47;2.47;;;2.28;;
24743;SDS011;12844;52.110;5.548;2023-08-06T07:08:13;2.90;;;2.17;;
24743;SDS011;12844;52.110;5.548;2023-08-06T07:10:40;2.13;;;1.92;;
24743;SDS011;12844;52.110;5.548;2023-08-06T07:13:06;2.50;;;2.30;;
24743;SDS011;12844;52.110;5.548;2023-08-06T07:15:31;2.40;;;2.20;;
24743;SDS011;12844;52.110;5.548;2023-08-06T07:17:57;2.25;;;2.05;;
24743;SDS011;12844;52.110;5.548;2023-08-06T07:20:23;2.85;;;2.50;;
24743;SDS011;12844;52.110;5.548;2023-08-06T07:22:48;2.30;;;2.10;;
24743;SDS011;12844;52.110;5.548;2023-08-06T07:25:15;3.30;;;3.00;;
24743;SDS011;12844;52.110;5.548;2023-08-06T07:27:41;2.65;;;2.45;;
24743;SDS011;12844;52.110;5.548;2023-08-06T07:30:07;2.55;;;2.35;;
24743;SDS011;12844;52.110;5.548;2023-08-06T07:32:33;2.30;;;2.10;;
24743;SDS011;12844;52.110;5.548;2023-08-06T07:34:59;2.35;;;2.15;;
24743;SDS011;12844;52.110;5.548;2023-08-06T07:37:26;2.40;;;2.20;;
24743;SDS011;12844;52.110;5.548;2023-08-06T07:39:55;2.65;;;2.45;;
24743;SDS011;12844;52.110;5.548;2023-08-06T07:42:21;2.13;;;2.00;;
24743;SDS011;12844;52.110;5.548;2023-08-06T07:44:56;2.38;;;2.17;;
24743;SDS011;12844;52.110;5.548;2023-08-06T07:47:23;2.22;;;2.00;;
24743;SDS011;12844;52.110;5.548;2023-08-06T07:49:49;1.80;;;1.70;;
24743;SDS011;12844;52.110;5.548;2023-08-06T07:52:14;1.98;;;1.88;;
24743;SDS011;12844;52.110;5.548;2023-08-06T07:54:40;2.00;;;1.85;;
24743;SDS011;12844;52.110;5.548;2023-08-06T07:57:06;2.25;;;2.05;;
24743;SDS011;12844;52.110;5.548;2023-08-06T07:59:31;2.28;;;2.08;;
24743;SDS011;12844;52.110;5.548;2023-08-06T08:01:57;2.33;;;2.10;;
24743;SDS011;12844;52.110;5.548;2023-08-06T08:04:23;2.05;;;1.90;;
24743;SDS011;12844;52.110;5.548;2023-08-06T08:06:49;1.83;;;1.73;;
24743;SDS011;12844;52.110;5.548;2023-08-06T08:09:15;2.20;;;2.00;;
24743;SDS011;12844;52.110;5.548;2023-08-06T08:11:40;2.40;;;2.20;;
24743;SDS011;12844;52.110;5.548;2023-08-06T08:14:06;2.03;;;1.83;;
24743;SDS011;12844;52.110;5.548;2023-08-06T08:16:32;1.80;;;1.70;;
24743;SDS011;12844;52.110;5.548;2023-08-06T08:18:57;2.10;;;1.90;;
24743;SDS011;12844;52.110;5.548;2023-08-06T08:21:23;2.38;;;2.17;;
24743;SDS011;12844;52.110;5.548;2023-08-06T08:23:49;1.80;;;1.70;;
24743;SDS011;12844;52.110;5.548;2023-08-06T08:26:15;2.08;;;1.88;;
24743;SDS011;12844;52.110;5.548;2023-08-06T08:28:41;2.25;;;2.05;;
24743;SDS011;12844;52.110;5.548;2023-08-06T08:31:10;2.20;;;2.00;;
24743;SDS011;12844;52.110;5.548;2023-08-06T08:33:36;1.85;;;1.75;;
24743;SDS011;12844;52.110;5.548;2023-08-06T08:36:02;2.15;;;1.95;;
24743;SDS011;12844;52.110;5.548;2023-08-06T08:38:28;2.33;;;2.13;;
24743;SDS011;12844;52.110;5.548;2023-08-06T08:40:54;2.20;;;2.00;;
24743;SDS011;12844;52.110;5.548;2023-08-06T08:43:23;2.40;;;2.20;;
24743;SDS011;12844;52.110;5.548;2023-08-06T08:45:53;2.60;;;2.40;;
24743;SDS011;12844;52.110;5.548;2023-08-06T08:48:25;2.28;;;2.08;;
24743;SDS011;12844;52.110;5.548;2023-08-06T10:00:48;1.95;;;1.85;;
24743;SDS011;12844;52.110;5.548;2023-08-06T10:03:14;1.80;;;1.70;;
24743;SDS011;12844;52.110;5.548;2023-08-06T10:05:42;2.40;;;2.20;;
24743;SDS011;12844;52.110;5.548;2023-08-06T10:08:09;2.08;;;1.88;;
24743;SDS011;12844;52.110;5.548;2023-08-06T10:10:34;2.30;;;2.10;;
24743;SDS011;12844;52.110;5.548;2023-08-06T10:13:01;1.90;;;1.80;;
24743;SDS011;12844;52.110;5.548;2023-08-06T10:15:29;1.90;;;1.77;;
24743;SDS011;12844;52.110;5.548;2023-08-06T10:17:56;1.95;;;1.85;;
24743;SDS011;12844;52.110;5.548;2023-08-06T10:20:24;2.13;;;1.92;;
24743;SDS011;12844;52.110;5.548;2023-08-06T10:22:59;1.90;;;1.80;;
24743;SDS011;12844;52.110;5.548;2023-08-06T10:25:32;1.85;;;1.70;;
24743;SDS011;12844;52.110;5.548;2023-08-06T10:27:59;1.70;;;1.60;;
24743;SDS011;12844;52.110;5.548;2023-08-06T10:32:56;2.30;;;2.10;;
24743;SDS011;12844;52.110;5.548;2023-08-06T10:35:33;1.60;;;1.50;;
24743;SDS011;12844;52.110;5.548;2023-08-06T10:38:12;2.13;;;1.92;;
24743;SDS011;12844;52.110;5.548;2023-08-06T10:43:26;1.88;;;1.67;;
24743;SDS011;12844;52.110;5.548;2023-08-06T10:45:57;2.17;;;1.90;;
24743;SDS011;12844;52.110;5.548;2023-08-06T10:51:00;2.00;;;1.83;;
24743;SDS011;12844;52.110;5.548;2023-08-06T10:53:26;1.90;;;1.60;;
24743;SDS011;12844;52.110;5.548;2023-08-06T10:55:52;2.53;;;1.88;;
24743;SDS011;12844;52.110;5.548;2023-08-06T10:58:17;1.60;;;1.50;;
24743;SDS011;12844;52.110;5.548;2023-08-06T11:00:43;1.50;;;1.40;;
24743;SDS011;12844;52.110;5.548;2023-08-06T11:03:09;1.83;;;1.70;;
24743;SDS011;12844;52.110;5.548;2023-08-06T11:05:35;1.95;;;1.83;;
24743;SDS011;12844;52.110;5.548;2023-08-06T11:08:01;1.80;;;1.70;;
24743;SDS011;12844;52.110;5.548;2023-08-06T11:10:26;2.00;;;1.80;;
24743;SDS011;12844;52.110;5.548;2023-08-06T11:12:52;1.85;;;1.75;;
24743;SDS011;12844;52.110;5.548;2023-08-06T11:15:19;1.98;;;1.80;;
24743;SDS011;12844;52.110;5.548;2023-08-06T11:17:45;1.83;;;1.73;;
24743;SDS011;12844;52.110;5.548;2023-08-06T11:20:11;1.70;;;1.60;;
24743;SDS011;12844;52.110;5.548;2023-08-06T11:22:37;1.90;;;1.80;;
24743;SDS011;12844;52.110;5.548;2023-08-06T11:25:03;1.80;;;1.70;;
24743;SDS011;12844;52.110;5.548;2023-08-06T11:27:30;1.88;;;1.70;;
24743;SDS011;12844;52.110;5.548;2023-08-06T11:29:56;1.98;;;1.80;;
24743;SDS011;12844;52.110;5.548;2023-08-06T11:32:22;1.85;;;1.58;;
24743;SDS011;12844;52.110;5.548;2023-08-06T11:34:47;2.22;;;1.80;;
24743;SDS011;12844;52.110;5.548;2023-08-06T11:37:13;2.10;;;1.90;;
24743;SDS011;12844;52.110;5.548;2023-08-06T11:39:38;1.58;;;1.48;;
24743;SDS011;12844;52.110;5.548;2023-08-06T11:42:11;1.83;;;1.70;;
24743;SDS011;12844;52.110;5.548;2023-08-06T11:44:37;2.00;;;1.80;;
24743;SDS011;12844;52.110;5.548;2023-08-06T11:47:05;1.83;;;1.70;;
24743;SDS011;12844;52.110;5.548;2023-08-06T11:52:38;1.83;;;1.70;;
24743;SDS011;12844;52.110;5.548;2023-08-06T11:55:05;2.05;;;1.85;;
24743;SDS011;12844;52.110;5.548;2023-08-06T11:57:35;1.65;;;1.55;;
24743;SDS011;12844;52.110;5.548;2023-08-06T12:00:02;1.70;;;1.60;;
24743;SDS011;12844;52.110;5.548;2023-08-06T12:02:35;1.60;;;1.50;;
24743;SDS011;12844;52.110;5.548;2023-08-06T12:05:10;1.67;;;1.58;;
24743;SDS011;12844;52.110;5.548;2023-08-06T12:07:40;1.60;;;1.50;;
24743;SDS011;12844;52.110;5.548;2023-08-06T12:10:07;1.60;;;1.50;;
24743;SDS011;12844;52.110;5.548;2023-08-06T12:12:33;1.80;;;1.70;;
24743;SDS011;12844;52.110;5.548;2023-08-06T12:14:59;1.92;;;1.70;;
24743;SDS011;12844;52.110;5.548;2023-08-06T12:17:25;1.90;;;1.50;;
24743;SDS011;12844;52.110;5.548;2023-08-06T12:19:51;1.58;;;1.48;;
24743;SDS011;12844;52.110;5.548;2023-08-06T12:22:16;1.70;;;1.55;;
24743;SDS011;12844;52.110;5.548;2023-08-06T12:24:42;1.67;;;1.58;;
24743;SDS011;12844;52.110;5.548;2023-08-06T12:27:09;1.60;;;1.50;;
24743;SDS011;12844;52.110;5.548;2023-08-06T12:29:35;1.60;;;1.50;;
24743;SDS011;12844;52.110;5.548;2023-08-06T12:32:02;1.95;;;1.73;;
24743;SDS011;12844;52.110;5.548;2023-08-06T12:34:28;1.60;;;1.50;;
24743;SDS011;12844;52.110;5.548;2023-08-06T12:36:54;1.63;;;1.52;;
24743;SDS011;12844;52.110;5.548;2023-08-06T12:39:19;1.70;;;1.60;;
24743;SDS011;12844;52.110;5.548;2023-08-06T12:41:45;1.40;;;1.30;;
24743;SDS011;12844;52.110;5.548;2023-08-06T12:44:11;1.50;;;1.40;;
24743;SDS011;12844;52.110;5.548;2023-08-06T12:46:37;1.85;;;1.52;;
24743;SDS011;12844;52.110;5.548;2023-08-06T12:49:03;1.92;;;1.70;;
24743;SDS011;12844;52.110;5.548;2023-08-06T12:51:28;1.63;;;1.52;;
24743;SDS011;12844;52.110;5.548;2023-08-06T12:53:54;1.70;;;1.60;;
24743;SDS011;12844;52.110;5.548;2023-08-06T12:56:20;1.40;;;1.30;;
24743;SDS011;12844;52.110;5.548;2023-08-06T12:58:45;1.60;;;1.50;;
24743;SDS011;12844;52.110;5.548;2023-08-06T13:01:11;1.60;;;1.50;;
24743;SDS011;12844;52.110;5.548;2023-08-06T13:03:36;1.42;;;1.30;;
24743;SDS011;12844;52.110;5.548;2023-08-06T13:06:02;1.42;;;1.33;;
24743;SDS011;12844;52.110;5.548;2023-08-06T13:08:27;1.60;;;1.50;;
24743;SDS011;12844;52.110;5.548;2023-08-06T13:10:53;1.73;;;1.52;;
24743;SDS011;12844;52.110;5.548;2023-08-06T13:13:18;1.42;;;1.33;;
24743;SDS011;12844;52.110;5.548;2023-08-06T13:15:44;1.50;;;1.40;;
24743;SDS011;12844;52.110;5.548;2023-08-06T13:18:09;1.77;;;1.50;;
24743;SDS011;12844;52.110;5.548;2023-08-06T13:20:37;1.52;;;1.42;;
24743;SDS011;12844;52.110;5.548;2023-08-06T13:23:05;1.70;;;1.58;;
24743;SDS011;12844;52.110;5.548;2023-08-06T13:25:30;1.50;;;1.40;;
24743;SDS011;12844;52.110;5.548;2023-08-06T13:28:01;1.60;;;1.27;;
24743;SDS011;12844;52.110;5.548;2023-08-06T13:30:27;1.40;;;1.30;;
24743;SDS011;12844;52.110;5.548;2023-08-06T13:32:53;1.48;;;1.38;;
24743;SDS011;12844;52.110;5.548;2023-08-06T13:35:20;1.40;;;1.30;;
24743;SDS011;12844;52.110;5.548;2023-08-06T13:37:46;1.80;;;1.70;;
24743;SDS011;12844;52.110;5.548;2023-08-06T13:40:13;1.52;;;1.40;;
24743;SDS011;12844;52.110;5.548;2023-08-06T13:42:38;1.60;;;1.50;;
24743;SDS011;12844;52.110;5.548;2023-08-06T13:45:04;1.80;;;1.40;;
24743;SDS011;12844;52.110;5.548;2023-08-06T13:47:31;1.40;;;1.30;;
24743;SDS011;12844;52.110;5.548;2023-08-06T13:49:56;1.55;;;1.38;;
24743;SDS011;12844;52.110;5.548;2023-08-06T13:52:22;1.45;;;1.35;;
24743;SDS011;12844;52.110;5.548;2023-08-06T13:54:47;1.40;;;1.30;;
24743;SDS011;12844;52.110;5.548;2023-08-06T13:57:13;1.70;;;1.60;;
24743;SDS011;12844;52.110;5.548;2023-08-06T13:59:39;1.33;;;1.23;;
24743;SDS011;12844;52.110;5.548;2023-08-06T14:02:04;1.65;;;1.55;;
24743;SDS011;12844;52.110;5.548;2023-08-06T14:04:30;1.45;;;1.25;;
24743;SDS011;12844;52.110;5.548;2023-08-06T14:06:55;1.42;;;1.33;;
24743;SDS011;12844;52.110;5.548;2023-08-06T14:09:21;1.70;;;1.40;;
24743;SDS011;12844;52.110;5.548;2023-08-06T14:11:46;1.73;;;1.60;;
24743;SDS011;12844;52.110;5.548;2023-08-06T14:14:12;1.73;;;1.40;;
24743;SDS011;12844;52.110;5.548;2023-08-06T14:16:38;1.75;;;1.52;;
24743;SDS011;12844;52.110;5.548;2023-08-06T14:19:04;1.40;;;1.30;;
24743;SDS011;12844;52.110;5.548;2023-08-06T14:21:29;1.45;;;1.35;;
24743;SDS011;12844;52.110;5.548;2023-08-06T14:23:55;1.75;;;1.65;;
24743;SDS011;12844;52.110;5.548;2023-08-06T14:26:20;1.50;;;1.40;;
24743;SDS011;12844;52.110;5.548;2023-08-06T14:28:46;1.95;;;1.55;;
24743;SDS011;12844;52.110;5.548;2023-08-06T14:31:11;1.65;;;1.40;;
24743;SDS011;12844;52.110;5.548;2023-08-06T14:33:37;1.40;;;1.30;;
24743;SDS011;12844;52.110;5.548;2023-08-06T14:36:03;1.48;;;1.38;;
24743;SDS011;12844;52.110;5.548;2023-08-06T14:38:28;1.63;;;1.40;;
24743;SDS011;12844;52.110;5.548;2023-08-06T14:40:54;1.40;;;1.30;;
24743;SDS011;12844;52.110;5.548;2023-08-06T14:43:19;1.40;;;1.30;;
24743;SDS011;12844;52.110;5.548;2023-08-06T14:45:45;1.40;;;1.30;;
24743;SDS011;12844;52.110;5.548;2023-08-06T14:48:11;1.30;;;1.20;;
24743;SDS011;12844;52.110;5.548;2023-08-06T14:50:36;1.50;;;1.40;;
24743;SDS011;12844;52.110;5.548;2023-08-06T14:53:04;1.40;;;1.30;;
24743;SDS011;12844;52.110;5.548;2023-08-06T14:55:30;1.20;;;1.10;;
24743;SDS011;12844;52.110;5.548;2023-08-06T14:57:56;1.42;;;1.30;;
24743;SDS011;12844;52.110;5.548;2023-08-06T15:00:22;1.38;;;1.27;;
24743;SDS011;12844;52.110;5.548;2023-08-06T15:02:47;1.25;;;1.15;;
24743;SDS011;12844;52.110;5.548;2023-08-06T15:05:13;1.33;;;1.23;;
24743;SDS011;12844;52.110;5.548;2023-08-06T15:07:38;1.52;;;1.42;;
24743;SDS011;12844;52.110;5.548;2023-08-06T15:10:05;1.42;;;1.30;;
24743;SDS011;12844;52.110;5.548;2023-08-06T15:12:31;1.35;;;1.10;;
24743;SDS011;12844;52.110;5.548;2023-08-06T15:15:00;2.15;;;1.35;;
24743;SDS011;12844;52.110;5.548;2023-08-06T15:17:26;1.50;;;1.17;;
24743;SDS011;12844;52.110;5.548;2023-08-06T15:19:55;1.45;;;1.30;;
24743;SDS011;12844;52.110;5.548;2023-08-06T15:22:21;1.33;;;1.10;;
24743;SDS011;12844;52.110;5.548;2023-08-06T15:24:47;1.27;;;1.17;;
24743;SDS011;12844;52.110;5.548;2023-08-06T15:27:12;1.40;;;1.30;;
24743;SDS011;12844;52.110;5.548;2023-08-06T15:29:38;1.40;;;1.30;;
24743;SDS011;12844;52.110;5.548;2023-08-06T15:32:03;1.40;;;1.30;;
24743;SDS011;12844;52.110;5.548;2023-08-06T15:34:29;1.55;;;1.27;;
24743;SDS011;12844;52.110;5.548;2023-08-06T15:36:55;1.30;;;1.20;;
24743;SDS011;12844;52.110;5.548;2023-08-06T15:39:20;1.50;;;1.30;;
24743;SDS011;12844;52.110;5.548;2023-08-06T15:41:46;1.25;;;1.15;;
24743;SDS011;12844;52.110;5.548;2023-08-06T15:44:11;1.35;;;1.23;;
24743;SDS011;12844;52.110;5.548;2023-08-06T15:46:37;1.35;;;1.20;;
24743;SDS011;12844;52.110;5.548;2023-08-06T15:49:03;1.40;;;1.20;;
24743;SDS011;12844;52.110;5.548;2023-08-06T15:51:29;1.20;;;1.10;;
24743;SDS011;12844;52.110;5.548;2023-08-06T15:53:55;1.20;;;1.08;;
24743;SDS011;12844;52.110;5.548;2023-08-06T15:56:21;1.17;;;1.00;;
24743;SDS011;12844;52.110;5.548;2023-08-06T15:58:46;1.80;;;1.23;;
24743;SDS011;12844;52.110;5.548;2023-08-06T16:01:12;1.48;;;1.13;;
24743;SDS011;12844;52.110;5.548;2023-08-06T16:03:39;1.13;;;1.00;;
24743;SDS011;12844;52.110;5.548;2023-08-06T16:06:07;1.42;;;1.00;;